Time;durP1;ratioP1;P1;durP2;ratioP2;P2;SDS_P1;SDS_P2;PMS_P1;PMS_P2;Temp;Humidity;BMP_temperature;BMP_pressure;BME280_temperature;BME280_humidity;BME280_pressure;Samples;Min_cycle;Max_cycle;Signal;HPM_P1;HPM_P2
2022/12/11 00:01:43;;;;;;;9.37;4.00;;;4.70;99.90;;;;;;4999301;28;20541;-83
2022/12/11 00:04:09;;;;;;;10.23;4.13;;;4.70;99.90;;;;;;5025720;28;20418;-82
2022/12/11 00:06:34;;;;;;;10.15;4.43;;;4.70;99.90;;;;;;5038722;28;20033;-83
2022/12/11 00:09:00;;;;;;;11.63;5.17;;;4.70;99.90;;;;;;4967406;28;20032;-82
2022/12/11 00:11:26;;;;;;;13.32;4.65;;;4.70;99.90;;;;;;4971711;28;20045;-83
2022/12/11 00:13:52;;;;;;;10.17;3.97;;;4.70;99.90;;;;;;4953328;28;20299;-82
2022/12/11 00:16:18;;;;;;;8.85;4.00;;;4.60;99.90;;;;;;4986161;28;20021;-83
2022/12/11 00:18:43;;;;;;;9.02;3.75;;;4.70;99.90;;;;;;5007261;28;20664;-82
2022/12/11 00:21:13;;;;;;;11.27;4.40;;;4.60;99.90;;;;;;4997567;28;20052;-83
2022/12/11 00:23:39;;;;;;;10.80;4.35;;;4.60;99.90;;;;;;4987481;28;20460;-82
2022/12/11 00:26:08;;;;;;;9.35;4.25;;;4.60;99.90;;;;;;5009239;28;20029;-83
2022/12/11 00:28:34;;;;;;;8.82;3.85;;;4.60;99.90;;;;;;4950588;28;20025;-82
2022/12/11 00:31:08;;;;;;;9.53;4.10;;;4.60;99.90;;;;;;5020287;28;20718;-83
2022/12/11 00:33:34;;;;;;;10.00;3.90;;;4.60;99.90;;;;;;5025794;28;20033;-82
2022/12/11 00:36:00;;;;;;;9.27;4.22;;;4.50;99.90;;;;;;4997011;28;20271;-82
2022/12/11 00:38:26;;;;;;;9.13;3.45;;;4.60;99.90;;;;;;5011202;28;20028;-82
2022/12/11 00:40:52;;;;;;;9.00;3.57;;;4.60;99.90;;;;;;5003963;28;20049;-83
2022/12/11 00:43:18;;;;;;;8.57;4.00;;;4.60;99.90;;;;;;5020438;28;20082;-83
2022/12/11 00:45:45;;;;;;;9.83;3.83;;;4.60;99.90;;;;;;4974656;28;20040;-83
2022/12/11 00:48:11;;;;;;;10.07;4.03;;;4.60;99.90;;;;;;4982895;28;20574;-82
2022/12/11 00:50:37;;;;;;;9.52;3.95;;;4.60;99.90;;;;;;5011235;28;20580;-82
2022/12/11 00:53:04;;;;;;;7.97;3.40;;;4.60;99.90;;;;;;5015051;28;20108;-83
2022/12/11 00:55:34;;;;;;;10.93;4.43;;;4.60;99.90;;;;;;4998799;28;20239;-82
2022/12/11 00:58:00;;;;;;;8.50;3.72;;;4.70;99.90;;;;;;5029550;28;20032;-82
2022/12/11 01:00:26;;;;;;;10.02;4.22;;;4.60;99.90;;;;;;4952363;28;20388;-83
2022/12/11 01:02:52;;;;;;;8.83;4.07;;;4.60;99.90;;;;;;5025624;28;20032;-83
2022/12/11 01:05:17;;;;;;;10.25;4.47;;;4.60;99.90;;;;;;5014344;28;20041;-84
2022/12/11 01:07:43;;;;;;;12.70;4.80;;;4.60;99.90;;;;;;5010082;28;20033;-82
2022/12/11 01:10:25;;;;;;;9.70;4.00;;;4.60;99.90;;;;;;4984632;28;20047;-82
2022/12/11 01:13:04;;;;;;;10.23;3.83;;;4.60;99.90;;;;;;5016364;28;20074;-84
2022/12/11 01:15:42;;;;;;;9.87;4.03;;;4.60;99.90;;;;;;4993558;28;20040;-83
2022/12/11 01:18:10;;;;;;;11.07;4.88;;;4.60;99.90;;;;;;5005853;28;20511;-83
2022/12/11 01:20:38;;;;;;;10.02;4.53;;;4.60;99.90;;;;;;5012962;28;20052;-82
2022/12/11 01:23:05;;;;;;;9.73;4.18;;;4.60;99.90;;;;;;4994252;28;20029;-83
2022/12/11 01:25:32;;;;;;;9.05;3.97;;;4.60;99.90;;;;;;5012153;28;20287;-83
2022/12/11 01:27:58;;;;;;;10.57;4.27;;;4.60;99.90;;;;;;5002292;28;20036;-83
2022/12/11 01:30:25;;;;;;;9.43;4.10;;;4.60;99.90;;;;;;4978433;28;20064;-83
2022/12/11 01:32:51;;;;;;;9.45;3.95;;;4.70;99.90;;;;;;5020883;28;20732;-83
2022/12/11 01:35:17;;;;;;;7.70;3.83;;;4.70;99.90;;;;;;4993401;28;20044;-83
2022/12/11 01:37:43;;;;;;;9.85;3.97;;;4.70;99.90;;;;;;5015496;28;20449;-83
2022/12/11 01:40:12;;;;;;;8.60;3.93;;;4.70;99.90;;;;;;5013643;28;20366;-83
2022/12/11 01:42:38;;;;;;;8.43;3.67;;;4.70;99.90;;;;;;4999757;28;20025;-83
2022/12/11 01:45:25;;;;;;;8.05;3.65;;;4.70;99.90;;;;;;5013127;28;20063;-83
2022/12/11 01:47:57;;;;;;;8.23;3.75;;;4.70;99.90;;;;;;4999009;28;20041;-83
2022/12/11 01:50:23;;;;;;;8.40;3.87;;;4.70;99.90;;;;;;5000675;28;20025;-83
2022/12/11 01:52:50;;;;;;;9.00;3.80;;;4.70;99.90;;;;;;5014188;28;20440;-83
2022/12/11 01:55:17;;;;;;;9.23;4.15;;;4.80;99.90;;;;;;5008355;28;20472;-83
2022/12/11 01:57:46;;;;;;;8.93;3.90;;;4.80;99.90;;;;;;5002197;28;20234;-82
2022/12/11 02:00:12;;;;;;;9.40;4.30;;;4.80;99.90;;;;;;5013357;28;20049;-83
2022/12/11 02:02:38;;;;;;;8.37;3.60;;;4.80;99.90;;;;;;4987214;28;21217;-82
2022/12/11 02:05:06;;;;;;;8.98;3.80;;;4.80;99.90;;;;;;5007029;28;20052;-83
2022/12/11 02:07:39;;;;;;;9.15;3.80;;;4.80;99.90;;;;;;5011486;28;20769;-83
2022/12/11 02:10:06;;;;;;;10.30;4.13;;;4.80;99.90;;;;;;5035906;28;20686;-83
2022/12/11 02:12:38;;;;;;;8.37;3.70;;;4.90;99.90;;;;;;5024769;28;20225;-83
2022/12/11 02:15:13;;;;;;;8.18;3.47;;;4.80;99.90;;;;;;5003466;28;20627;-82
2022/12/11 02:18:06;;;;;;;10.85;4.38;;;4.80;99.90;;;;;;4994222;28;20033;-83
2022/12/11 02:20:42;;;;;;;8.32;3.85;;;4.80;99.90;;;;;;4956924;28;20340;-83
2022/12/11 02:23:14;;;;;;;7.20;3.25;;;4.80;99.90;;;;;;5014662;28;20080;-83
2022/12/11 02:26:02;;;;;;;7.13;3.20;;;4.80;99.90;;;;;;5027358;28;20678;-83
2022/12/11 02:28:43;;;;;;;8.25;3.28;;;4.80;99.90;;;;;;4979271;28;20071;-83
2022/12/11 02:31:26;;;;;;;8.80;3.50;;;4.80;99.90;;;;;;5005086;28;21922;-83
2022/12/11 02:34:07;;;;;;;6.97;3.30;;;4.80;99.90;;;;;;4972285;28;20727;-82
2022/12/11 02:36:37;;;;;;;6.85;3.30;;;4.80;99.90;;;;;;4999269;28;20036;-83
2022/12/11 02:39:04;;;;;;;8.30;3.57;;;4.90;99.90;;;;;;5016388;28;20595;-83
2022/12/11 02:41:32;;;;;;;7.95;3.67;;;4.80;99.90;;;;;;5014832;28;20150;-82
2022/12/11 02:44:01;;;;;;;7.85;3.40;;;4.90;99.90;;;;;;5006784;28;20166;-83
2022/12/11 02:46:28;;;;;;;8.18;3.67;;;4.90;99.90;;;;;;5003392;28;20050;-83
2022/12/11 02:48:55;;;;;;;8.43;3.83;;;4.90;99.90;;;;;;5017075;28;20022;-83
2022/12/11 02:51:27;;;;;;;9.33;3.73;;;4.90;99.90;;;;;;4969735;28;20385;-83
2022/12/11 02:53:56;;;;;;;7.47;3.33;;;4.90;99.90;;;;;;5017155;28;20756;-83
2022/12/11 02:56:43;;;;;;;7.85;3.50;;;4.90;99.90;;;;;;5007303;28;20242;-83
2022/12/11 02:59:14;;;;;;;7.07;3.22;;;4.90;99.90;;;;;;5000835;28;20111;-83
2022/12/11 03:01:41;;;;;;;6.97;3.25;;;4.90;99.90;;;;;;5030191;28;20073;-83
2022/12/11 03:04:07;;;;;;;7.83;3.50;;;4.90;99.90;;;;;;4991575;28;20479;-83
2022/12/11 03:06:43;;;;;;;8.07;3.65;;;4.90;99.90;;;;;;5012008;28;20193;-83
2022/12/11 03:09:09;;;;;;;7.45;3.60;;;4.90;99.90;;;;;;4993514;28;20393;-83
2022/12/11 03:11:34;;;;;;;8.55;3.22;;;4.90;99.90;;;;;;5029964;28;20855;-83
2022/12/11 03:14:04;;;;;;;7.57;3.53;;;4.90;99.90;;;;;;5028625;28;20104;-83
2022/12/11 03:16:36;;;;;;;7.15;3.50;;;4.90;99.90;;;;;;5015414;28;20506;-83
2022/12/11 03:19:20;;;;;;;7.88;3.38;;;4.90;99.90;;;;;;5026887;28;20108;-83
2022/12/11 03:22:06;;;;;;;8.77;4.20;;;4.90;99.90;;;;;;4959336;28;20389;-83
2022/12/11 03:24:59;;;;;;;9.40;3.73;;;4.90;99.90;;;;;;5009395;28;20135;-83
2022/12/11 03:27:49;;;;;;;8.48;3.60;;;4.90;99.90;;;;;;4992463;28;20372;-83
2022/12/11 03:30:22;;;;;;;9.43;4.05;;;4.90;99.90;;;;;;5011768;28;20373;-83
2022/12/11 03:33:01;;;;;;;7.70;3.08;;;4.90;99.90;;;;;;5018962;28;20027;-83
2022/12/11 03:35:37;;;;;;;10.18;4.07;;;4.90;99.90;;;;;;4976169;28;20422;-83
2022/12/11 03:38:22;;;;;;;7.43;3.33;;;4.90;99.90;;;;;;4986978;28;20021;-83
2022/12/11 03:40:52;;;;;;;8.55;3.30;;;4.90;99.90;;;;;;5008094;28;20078;-82
2022/12/11 03:43:20;;;;;;;9.38;3.33;;;4.90;99.90;;;;;;5025117;28;20326;-83
2022/12/11 03:45:48;;;;;;;9.73;3.70;;;4.80;99.90;;;;;;4999935;28;20013;-83
2022/12/11 03:48:16;;;;;;;9.38;3.80;;;4.90;99.90;;;;;;5007311;28;20030;-83
2022/12/11 03:50:42;;;;;;;8.90;3.40;;;4.80;99.90;;;;;;4992047;28;20037;-83
2022/12/11 03:53:09;;;;;;;8.15;3.60;;;4.80;99.90;;;;;;5018594;28;20035;-83
2022/12/11 03:55:36;;;;;;;8.93;3.65;;;4.80;99.90;;;;;;5009941;28;20021;-83
2022/12/11 03:58:02;;;;;;;8.43;3.45;;;4.80;99.90;;;;;;5024781;28;20025;-83
2022/12/11 04:00:28;;;;;;;7.97;3.23;;;4.80;99.90;;;;;;5018785;28;20499;-83
2022/12/11 04:03:12;;;;;;;9.63;3.60;;;4.80;99.90;;;;;;5028624;28;20546;-83
2022/12/11 04:05:42;;;;;;;10.35;3.85;;;4.80;99.90;;;;;;5004045;28;20056;-83
2022/12/11 04:08:09;;;;;;;9.43;3.70;;;4.80;99.90;;;;;;4997272;28;20056;-83
2022/12/11 04:10:34;;;;;;;10.73;4.05;;;4.70;99.90;;;;;;5026210;28;20035;-83
2022/12/11 04:13:00;;;;;;;8.47;3.50;;;4.70;99.90;;;;;;5024973;28;20025;-83
2022/12/11 04:15:26;;;;;;;10.45;4.00;;;4.80;99.90;;;;;;4994615;28;20208;-83
2022/12/11 04:26:06;;;;;;;9.50;3.60;;;4.70;99.90;;;;;;5028631;28;20056;-83
2022/12/11 04:28:33;;;;;;;8.82;3.63;;;4.70;99.90;;;;;;5014613;28;20413;-83
2022/12/11 04:30:59;;;;;;;10.02;4.22;;;4.70;99.90;;;;;;4998779;28;20390;-83
2022/12/11 04:33:24;;;;;;;10.20;4.30;;;4.70;99.90;;;;;;4988058;28;20024;-83
2022/12/11 04:35:50;;;;;;;9.30;4.07;;;4.70;99.90;;;;;;5007716;28;20021;-83
2022/12/11 04:38:16;;;;;;;9.15;4.07;;;4.70;99.90;;;;;;4976213;28;20232;-83
2022/12/11 04:40:41;;;;;;;8.80;3.90;;;4.70;99.90;;;;;;5013890;28;20029;-83
2022/12/11 04:43:07;;;;;;;11.48;4.50;;;4.70;99.90;;;;;;5020238;28;20036;-83
2022/12/11 04:45:33;;;;;;;8.57;3.47;;;4.80;99.90;;;;;;5006423;28;20339;-83
2022/12/11 04:47:59;;;;;;;9.23;4.13;;;4.70;99.90;;;;;;5008422;28;20029;-83
2022/12/11 04:50:24;;;;;;;9.80;4.13;;;4.80;99.90;;;;;;5017532;28;20258;-83
2022/12/11 04:52:54;;;;;;;10.27;4.18;;;4.80;99.90;;;;;;4976390;28;20021;-83
2022/12/11 04:55:38;;;;;;;10.23;4.13;;;4.70;99.90;;;;;;5017538;28;20111;-83
2022/12/11 04:58:04;;;;;;;10.50;4.22;;;4.80;99.90;;;;;;5027375;28;20254;-83
2022/12/11 05:00:29;;;;;;;12.03;4.37;;;4.80;99.90;;;;;;5008845;28;20124;-83
2022/12/11 05:02:55;;;;;;;12.90;4.47;;;4.80;99.90;;;;;;4986114;28;20517;-83
2022/12/11 05:05:21;;;;;;;12.20;4.75;;;4.70;99.90;;;;;;5013799;28;20049;-84
2022/12/11 05:07:46;;;;;;;12.63;5.37;;;4.70;99.90;;;;;;4981734;28;21189;-83
2022/12/11 05:10:12;;;;;;;12.32;4.75;;;4.70;99.90;;;;;;5013974;28;20029;-83
2022/12/11 05:12:38;;;;;;;10.90;4.17;;;4.70;99.90;;;;;;5025131;28;20017;-83
2022/12/11 05:15:04;;;;;;;13.02;5.15;;;4.70;99.90;;;;;;5024580;28;20126;-83
2022/12/11 05:17:30;;;;;;;9.60;4.00;;;4.70;99.90;;;;;;4982826;28;20025;-83
2022/12/11 05:19:55;;;;;;;10.30;4.23;;;4.70;99.90;;;;;;4983851;28;20419;-83
2022/12/11 05:22:21;;;;;;;12.15;4.60;;;4.70;99.90;;;;;;5008225;28;20666;-83
2022/12/11 05:24:47;;;;;;;10.83;4.40;;;4.70;99.90;;;;;;4960833;28;20591;-83
2022/12/11 05:27:13;;;;;;;14.17;5.00;;;4.70;99.90;;;;;;5031346;28;20547;-83
2022/12/11 05:29:39;;;;;;;15.27;5.15;;;4.70;99.90;;;;;;4990790;28;20251;-83
2022/12/11 05:32:04;;;;;;;11.98;4.78;;;4.70;99.90;;;;;;5001467;28;20036;-83
2022/12/11 05:34:30;;;;;;;13.23;5.07;;;4.70;99.90;;;;;;4986338;28;20027;-83
2022/12/11 05:36:56;;;;;;;12.15;4.82;;;4.70;99.90;;;;;;5026776;28;20032;-83
2022/12/11 05:39:22;;;;;;;12.65;4.68;;;4.70;99.90;;;;;;4971398;28;20760;-83
2022/12/11 05:41:47;;;;;;;11.27;4.00;;;4.70;99.90;;;;;;5012898;28;20029;-83
2022/12/11 05:44:13;;;;;;;13.53;5.10;;;4.70;99.90;;;;;;5014240;28;20033;-83
2022/12/11 05:46:39;;;;;;;11.80;4.60;;;4.70;99.90;;;;;;5010899;28;20275;-83
2022/12/11 05:49:05;;;;;;;11.38;4.30;;;4.70;99.90;;;;;;5005749;28;20037;-83
2022/12/11 05:51:34;;;;;;;9.90;3.97;;;4.70;99.90;;;;;;4989265;28;20071;-83
2022/12/11 05:54:01;;;;;;;12.27;4.85;;;4.70;99.90;;;;;;5001281;28;20059;-82
2022/12/11 05:56:30;;;;;;;11.70;4.68;;;4.70;99.90;;;;;;5013083;28;20029;-83
2022/12/11 05:58:58;;;;;;;12.25;4.40;;;4.70;99.90;;;;;;5034319;28;20021;-82
2022/12/11 06:01:31;;;;;;;11.73;4.25;;;4.70;99.90;;;;;;4998800;28;20313;-83
2022/12/11 06:03:57;;;;;;;12.03;4.63;;;4.70;99.90;;;;;;5004550;28;20482;-83
2022/12/11 06:06:23;;;;;;;10.95;4.25;;;4.70;99.90;;;;;;5020692;28;20255;-82
2022/12/11 06:08:50;;;;;;;12.20;4.20;;;4.70;99.90;;;;;;4982005;28;20037;-83
2022/12/11 06:11:16;;;;;;;16.38;4.68;;;4.70;99.90;;;;;;4950096;28;20025;-83
2022/12/11 06:13:42;;;;;;;13.87;4.83;;;4.70;99.90;;;;;;5020633;28;20648;-83
2022/12/11 06:16:09;;;;;;;9.95;4.10;;;4.70;99.90;;;;;;5014379;28;20459;-83
2022/12/11 06:18:40;;;;;;;11.10;4.35;;;4.70;99.90;;;;;;4982007;28;20030;-83
2022/12/11 06:21:12;;;;;;;11.63;4.40;;;4.70;99.90;;;;;;5002675;28;20017;-83
2022/12/11 06:23:37;;;;;;;12.55;5.10;;;4.60;99.90;;;;;;4981118;28;20103;-82
2022/12/11 06:26:03;;;;;;;11.90;4.45;;;4.70;99.90;;;;;;4980865;28;20029;-83
2022/12/11 06:28:29;;;;;;;14.17;4.70;;;4.60;99.90;;;;;;5005363;28;20055;-83
2022/12/11 06:30:58;;;;;;;14.00;4.50;;;4.70;99.90;;;;;;5030223;28;20509;-83
2022/12/11 06:33:24;;;;;;;10.63;4.03;;;4.70;99.90;;;;;;5000288;28;20493;-83
2022/12/11 06:35:50;;;;;;;11.63;4.13;;;4.70;99.90;;;;;;4986910;28;23117;-83
2022/12/11 06:38:16;;;;;;;11.13;4.18;;;4.60;99.90;;;;;;5021218;28;20021;-83
2022/12/11 06:40:42;;;;;;;11.23;4.28;;;4.60;99.90;;;;;;4988028;28;20033;-83
2022/12/11 06:43:08;;;;;;;11.88;4.30;;;4.70;99.90;;;;;;5001044;28;20493;-83
2022/12/11 06:45:35;;;;;;;10.00;3.73;;;4.60;99.90;;;;;;5032701;28;20055;-83
2022/12/11 06:48:01;;;;;;;10.00;3.95;;;4.60;99.90;;;;;;5005982;28;20064;-83
2022/12/11 06:50:27;;;;;;;11.95;4.43;;;4.60;99.90;;;;;;5001914;28;20748;-83
2022/12/11 06:52:54;;;;;;;11.47;4.27;;;4.60;99.90;;;;;;4979374;28;20243;-82
2022/12/11 06:55:19;;;;;;;14.52;4.63;;;4.60;99.90;;;;;;4982336;28;20021;-83
2022/12/11 06:57:45;;;;;;;13.00;4.63;;;4.60;99.90;;;;;;4977660;28;20226;-83
2022/12/11 07:00:12;;;;;;;13.07;4.90;;;4.60;99.90;;;;;;5003779;28;20029;-83
2022/12/11 07:02:37;;;;;;;9.77;4.28;;;4.50;99.90;;;;;;4988785;28;20087;-83
2022/12/11 07:05:03;;;;;;;10.47;4.17;;;4.60;99.90;;;;;;5008268;28;20268;-83
2022/12/11 07:07:29;;;;;;;13.68;5.03;;;4.60;99.90;;;;;;5003927;28;20040;-83
2022/12/11 07:09:55;;;;;;;12.57;4.90;;;4.60;99.90;;;;;;5000755;28;20769;-83
2022/12/11 07:12:20;;;;;;;10.73;4.23;;;4.50;99.90;;;;;;4967835;28;20699;-83
2022/12/11 07:14:46;;;;;;;12.15;4.18;;;4.60;99.90;;;;;;5008650;28;20032;-83
2022/12/11 07:17:12;;;;;;;12.83;4.63;;;4.60;99.90;;;;;;4999955;28;20023;-83
2022/12/11 07:19:39;;;;;;;11.13;4.55;;;4.60;99.90;;;;;;5030138;28;20061;-83
2022/12/11 07:22:05;;;;;;;11.50;4.65;;;4.60;99.90;;;;;;5004236;28;20906;-83
2022/12/11 07:24:31;;;;;;;11.70;4.53;;;4.60;99.90;;;;;;5017655;28;20033;-83
2022/12/11 07:26:57;;;;;;;13.30;5.17;;;4.60;99.90;;;;;;4947120;28;20919;-83
2022/12/11 07:29:23;;;;;;;12.00;4.75;;;4.60;99.90;;;;;;4988080;28;20028;-83
2022/12/11 07:31:49;;;;;;;11.73;4.80;;;4.60;99.90;;;;;;4991128;28;20029;-82
2022/12/11 07:34:14;;;;;;;12.40;4.90;;;4.60;99.90;;;;;;5031014;28;20016;-82
2022/12/11 07:36:42;;;;;;;14.05;4.97;;;4.60;99.90;;;;;;5005986;28;20422;-83
2022/12/11 07:39:10;;;;;;;11.85;4.38;;;4.60;99.90;;;;;;4995279;28;20398;-83
2022/12/11 07:41:36;;;;;;;11.33;4.00;;;4.60;99.90;;;;;;4988941;28;20024;-82
2022/12/11 07:44:02;;;;;;;11.98;4.30;;;4.60;99.90;;;;;;4961968;28;20149;-83
2022/12/11 07:46:31;;;;;;;12.05;4.97;;;4.60;99.90;;;;;;5007724;28;20028;-83
2022/12/11 07:48:57;;;;;;;11.75;4.68;;;4.60;99.90;;;;;;5031460;28;20204;-83
2022/12/11 07:51:28;;;;;;;13.70;5.63;;;4.60;99.90;;;;;;4992837;28;20159;-83
2022/12/11 07:53:56;;;;;;;13.23;5.20;;;4.60;99.90;;;;;;5001439;28;20096;-83
2022/12/11 07:56:23;;;;;;;15.98;5.88;;;4.60;99.90;;;;;;4996913;28;20053;-83
2022/12/11 07:58:48;;;;;;;14.52;5.00;;;4.50;99.90;;;;;;4955444;28;20064;-83
2022/12/11 08:01:20;;;;;;;10.80;4.85;;;4.60;99.90;;;;;;5001849;28;20051;-82
2022/12/11 08:03:47;;;;;;;13.13;5.20;;;4.60;99.90;;;;;;5012209;28;20028;-83
2022/12/11 08:06:13;;;;;;;12.82;5.32;;;4.50;99.90;;;;;;4978147;28;21158;-83
2022/12/11 08:08:40;;;;;;;13.65;5.38;;;4.50;99.90;;;;;;5005499;28;20025;-84
2022/12/11 08:11:08;;;;;;;12.27;4.68;;;4.50;99.90;;;;;;4979095;28;20635;-84
2022/12/11 08:13:34;;;;;;;14.93;5.87;;;4.50;99.90;;;;;;4977097;28;20637;-83
2022/12/11 08:16:08;;;;;;;13.82;5.45;;;4.50;99.90;;;;;;4973566;28;20021;-83
2022/12/11 08:18:35;;;;;;;13.00;5.43;;;4.50;99.90;;;;;;5034735;28;20029;-83
2022/12/11 08:21:14;;;;;;;12.73;5.00;;;4.50;99.90;;;;;;5013135;28;20028;-83
2022/12/11 08:23:40;;;;;;;13.45;5.38;;;4.50;99.90;;;;;;5004793;28;20036;-83
2022/12/11 08:26:07;;;;;;;13.23;5.10;;;4.50;99.90;;;;;;4981739;28;20351;-83
2022/12/11 08:28:34;;;;;;;12.77;4.93;;;4.50;99.90;;;;;;5001976;28;20124;-83
2022/12/11 08:31:02;;;;;;;12.40;5.03;;;4.50;99.90;;;;;;4997367;28;20156;-83
2022/12/11 08:33:28;;;;;;;14.48;5.38;;;4.50;99.90;;;;;;5025968;28;20543;-83
2022/12/11 08:35:53;;;;;;;12.27;4.80;;;4.60;99.90;;;;;;5012153;28;20024;-83
2022/12/11 08:38:19;;;;;;;13.02;4.95;;;4.60;99.90;;;;;;5019751;28;20036;-83
2022/12/11 08:40:45;;;;;;;13.00;5.20;;;4.60;99.90;;;;;;5012591;28;20067;-83
2022/12/11 08:43:11;;;;;;;12.43;4.72;;;4.60;99.90;;;;;;4974273;28;20990;-83
2022/12/11 08:45:38;;;;;;;11.90;4.90;;;4.60;99.90;;;;;;4994967;28;20028;-82
2022/12/11 08:48:04;;;;;;;15.40;5.70;;;4.60;99.90;;;;;;4946378;28;20227;-82
2022/12/11 08:50:30;;;;;;;12.75;5.30;;;4.60;99.90;;;;;;5033846;28;20026;-83
2022/12/11 08:52:56;;;;;;;14.70;5.97;;;4.60;99.90;;;;;;5025795;28;20060;-83
2022/12/11 08:55:22;;;;;;;11.80;4.57;;;4.60;99.90;;;;;;5010499;28;20112;-83
2022/12/11 08:57:49;;;;;;;11.25;5.00;;;4.70;99.90;;;;;;4975642;28;20087;-83
2022/12/11 09:00:15;;;;;;;13.70;5.03;;;4.60;99.90;;;;;;4997459;28;20241;-83
2022/12/11 09:02:41;;;;;;;13.20;5.28;;;4.70;99.90;;;;;;4975581;28;20658;-83
2022/12/11 09:05:08;;;;;;;10.37;3.93;;;4.70;99.90;;;;;;5002192;28;20044;-83
2022/12/11 09:07:35;;;;;;;11.20;4.80;;;4.70;99.90;;;;;;5033056;28;20493;-83
2022/12/11 09:10:02;;;;;;;13.45;5.45;;;4.70;99.90;;;;;;5002697;28;20574;-83
2022/12/11 09:12:28;;;;;;;15.30;6.47;;;4.70;99.90;;;;;;5009723;28;20501;-82
2022/12/11 09:14:54;;;;;;;14.67;5.57;;;4.70;99.90;;;;;;4983436;28;20029;-82
2022/12/11 09:17:20;;;;;;;12.90;5.27;;;4.70;99.90;;;;;;4997772;28;22014;-83
2022/12/11 09:19:45;;;;;;;12.73;5.03;;;4.70;99.90;;;;;;5037930;28;20029;-82
2022/12/11 09:22:11;;;;;;;15.13;5.70;;;4.70;99.90;;;;;;4999149;28;20278;-83
2022/12/11 09:24:38;;;;;;;13.90;5.68;;;4.80;99.90;;;;;;5016039;28;20021;-83
2022/12/11 09:27:04;;;;;;;13.57;5.38;;;4.70;99.90;;;;;;5022260;28;20040;-83
2022/12/11 09:29:30;;;;;;;12.52;4.97;;;4.70;99.90;;;;;;5009589;28;20016;-83
2022/12/11 09:31:56;;;;;;;15.57;5.55;;;4.80;99.90;;;;;;4993196;28;20032;-82
2022/12/11 09:34:22;;;;;;;11.63;4.33;;;4.80;99.90;;;;;;5007394;28;20336;-82
2022/12/11 09:36:48;;;;;;;14.57;5.60;;;4.70;99.90;;;;;;5002294;28;20036;-83
2022/12/11 09:39:15;;;;;;;13.20;5.28;;;4.70;99.90;;;;;;5003431;28;20024;-83
2022/12/11 09:41:44;;;;;;;13.45;4.75;;;4.80;99.90;;;;;;5008216;28;20770;-83
2022/12/11 09:44:10;;;;;;;15.50;6.00;;;4.80;99.90;;;;;;4981856;28;20034;-83
2022/12/11 09:46:37;;;;;;;12.55;4.82;;;4.80;99.90;;;;;;5007848;28;20335;-84
2022/12/11 09:49:17;;;;;;;11.48;4.97;;;4.80;99.90;;;;;;4971856;28;20095;-83
2022/12/11 09:51:49;;;;;;;13.63;4.77;;;4.90;99.90;;;;;;5034532;28;20021;-83
2022/12/11 09:54:14;;;;;;;12.93;5.45;;;4.90;99.90;;;;;;4994305;28;20048;-83
2022/12/11 09:57:25;;;;;;;11.82;4.50;;;4.80;99.90;;;;;;4993398;28;20131;-83
2022/12/11 10:00:18;;;;;;;12.50;4.38;;;4.80;99.90;;;;;;4974295;28;20041;-81
2022/12/11 10:03:06;;;;;;;15.00;5.30;;;4.90;99.90;;;;;;4994605;28;20048;-83
2022/12/11 10:05:59;;;;;;;13.48;5.30;;;4.90;99.90;;;;;;4990477;28;20033;-83
2022/12/11 10:08:34;;;;;;;11.90;5.18;;;4.80;99.90;;;;;;5012084;28;20029;-83
2022/12/11 10:11:38;;;;;;;12.75;5.30;;;4.90;99.90;;;;;;5005344;28;20025;-83
2022/12/11 10:14:38;;;;;;;13.70;5.55;;;4.90;99.90;;;;;;4994404;28;20029;-83
2022/12/11 10:17:25;;;;;;;12.63;5.17;;;4.90;99.90;;;;;;5002663;28;20042;-83
2022/12/11 10:19:52;;;;;;;16.23;5.45;;;4.90;99.90;;;;;;4990448;28;20047;-83
2022/12/11 10:22:30;;;;;;;15.25;5.55;;;4.90;99.90;;;;;;5012144;28;20033;-83
2022/12/11 10:25:06;;;;;;;15.55;6.53;;;4.90;99.90;;;;;;4994800;28;20076;-83
2022/12/11 10:27:35;;;;;;;12.75;5.43;;;4.90;99.90;;;;;;4972799;28;20861;-82
2022/12/11 10:30:13;;;;;;;12.33;5.07;;;4.90;99.90;;;;;;5020942;28;20025;-83
2022/12/11 10:32:57;;;;;;;13.50;5.40;;;4.80;99.90;;;;;;4998230;28;20424;-82
2022/12/11 10:35:35;;;;;;;15.15;5.80;;;4.80;99.90;;;;;;4979876;28;20377;-82
2022/12/11 10:38:12;;;;;;;12.73;5.18;;;4.80;99.90;;;;;;5017694;28;20571;-83
2022/12/11 10:40:45;;;;;;;15.20;6.13;;;4.80;99.90;;;;;;4994689;28;20649;-82
2022/12/11 10:43:11;;;;;;;13.93;5.17;;;4.80;99.90;;;;;;4985345;28;20048;-83
2022/12/11 10:45:37;;;;;;;11.18;4.28;;;4.90;99.90;;;;;;4995871;28;20718;-83
2022/12/11 10:48:05;;;;;;;13.13;5.63;;;4.80;99.90;;;;;;5010088;28;20041;-82
2022/12/11 10:50:32;;;;;;;15.60;5.95;;;4.80;99.90;;;;;;5001487;28;20138;-82
2022/12/11 10:52:57;;;;;;;10.68;4.90;;;4.90;99.90;;;;;;4949780;28;20224;-82
2022/12/11 10:55:29;;;;;;;14.10;5.32;;;4.90;99.90;;;;;;5017710;28;20021;-83
2022/12/11 10:58:04;;;;;;;14.33;5.87;;;4.90;99.90;;;;;;4992909;28;20440;-83
2022/12/11 11:00:37;;;;;;;12.93;4.85;;;4.80;99.90;;;;;;5004544;28;20224;-83
2022/12/11 11:03:23;;;;;;;12.40;5.05;;;4.90;99.90;;;;;;4993236;28;20389;-83
2022/12/11 11:05:49;;;;;;;11.55;4.55;;;4.90;99.90;;;;;;5030913;28;20094;-83
2022/12/11 11:08:18;;;;;;;11.50;4.68;;;4.90;99.90;;;;;;4981360;28;20366;-83
2022/12/11 11:10:55;;;;;;;11.93;4.87;;;4.90;99.90;;;;;;5000093;28;20402;-83
2022/12/11 11:13:27;;;;;;;16.05;5.80;;;4.80;99.90;;;;;;4983505;28;20461;-83
2022/12/11 11:16:11;;;;;;;12.82;5.10;;;4.80;99.90;;;;;;4979818;28;20028;-82
2022/12/11 11:18:39;;;;;;;14.55;5.20;;;4.80;99.90;;;;;;5005629;28;20028;-83
2022/12/11 11:21:05;;;;;;;14.18;5.35;;;4.90;99.90;;;;;;5000225;28;20623;-83
2022/12/11 11:23:31;;;;;;;11.33;4.60;;;4.80;99.90;;;;;;4980344;28;20466;-83
2022/12/11 11:26:05;;;;;;;11.82;4.60;;;4.80;99.90;;;;;;4996178;28;20144;-83
2022/12/11 11:28:37;;;;;;;11.45;4.68;;;4.90;99.90;;;;;;5026239;28;20493;-83
2022/12/11 11:31:13;;;;;;;13.00;5.15;;;4.90;99.90;;;;;;4980723;28;20481;-83
2022/12/11 11:33:59;;;;;;;10.57;4.50;;;4.90;99.90;;;;;;5027167;28;20603;-83
2022/12/11 11:36:28;;;;;;;9.73;4.00;;;5.00;99.90;;;;;;5002665;28;20021;-83
2022/12/11 11:39:18;;;;;;;11.02;4.47;;;5.10;99.90;;;;;;4996543;28;20540;-83
2022/12/11 11:41:59;;;;;;;11.02;3.97;;;5.10;99.90;;;;;;5026642;28;20033;-83
2022/12/11 11:44:37;;;;;;;11.65;4.43;;;5.20;99.90;;;;;;5011650;28;20048;-83
2022/12/11 11:47:37;;;;;;;11.37;4.37;;;5.30;99.90;;;;;;5010102;28;20276;-82
2022/12/11 11:50:16;;;;;;;12.52;4.68;;;5.40;99.90;;;;;;4981627;28;20125;-82
2022/12/11 11:53:09;;;;;;;11.27;4.68;;;5.70;99.90;;;;;;5016602;28;20516;-84
2022/12/11 11:56:00;;;;;;;12.30;4.72;;;6.00;99.90;;;;;;4986502;28;20033;-83
2022/12/11 11:58:55;;;;;;;11.80;5.45;;;6.20;99.90;;;;;;4995103;28;20156;-83
2022/12/11 12:01:21;;;;;;;10.70;4.13;;;6.40;99.90;;;;;;4983331;28;20029;-83
2022/12/11 12:03:48;;;;;;;8.02;3.53;;;6.50;99.90;;;;;;4969974;28;20041;-83
2022/12/11 12:06:29;;;;;;;11.75;4.10;;;6.60;99.90;;;;;;4982904;28;20029;-83
2022/12/11 12:09:32;;;;;;;8.32;3.72;;;6.60;99.90;;;;;;4961901;28;20761;-84
2022/12/11 12:11:57;;;;;;;8.65;4.00;;;6.60;99.90;;;;;;5016510;28;20201;-83
2022/12/11 12:14:54;;;;;;;9.13;4.13;;;6.60;99.90;;;;;;5029183;28;20024;-83
2022/12/11 12:17:47;;;;;;;9.60;3.88;;;6.60;99.90;;;;;;4982679;28;20692;-82
2022/12/11 12:20:29;;;;;;;7.60;3.13;;;6.60;99.90;;;;;;4985937;28;20025;-83
2022/12/11 12:23:06;;;;;;;9.82;4.25;;;6.60;99.90;;;;;;4998804;28;20109;-83
2022/12/11 12:25:45;;;;;;;10.30;4.43;;;6.70;99.90;;;;;;4979711;28;20025;-83
2022/12/11 12:28:43;;;;;;;9.95;4.35;;;6.70;99.90;;;;;;5016137;28;20033;-83
2022/12/11 12:31:22;;;;;;;10.50;4.50;;;6.70;99.90;;;;;;4994594;28;20044;-83
2022/12/11 12:34:19;;;;;;;10.60;4.43;;;6.80;99.90;;;;;;4982206;28;20025;-83
2022/12/11 12:37:13;;;;;;;8.82;4.25;;;6.90;99.90;;;;;;4967679;28;20383;-83
2022/12/11 12:40:12;;;;;;;10.35;4.05;;;7.00;99.90;;;;;;4960393;28;20029;-83
2022/12/11 12:43:15;;;;;;;9.80;4.47;;;7.10;99.90;;;;;;4958342;28;20026;-83
2022/12/11 12:45:53;;;;;;;8.55;3.83;;;7.00;99.90;;;;;;5008292;28;20044;-82
2022/12/11 12:48:20;;;;;;;10.63;3.87;;;7.00;99.90;;;;;;5000748;28;20029;-82
2022/12/11 12:50:49;;;;;;;9.15;4.25;;;6.90;99.90;;;;;;4997471;28;20138;-83
2022/12/11 12:53:26;;;;;;;7.45;3.47;;;6.90;99.90;;;;;;4988629;28;20091;-83
2022/12/11 12:55:52;;;;;;;9.13;4.07;;;6.90;99.90;;;;;;4949701;28;20521;-83
2022/12/11 12:58:28;;;;;;;9.18;4.20;;;6.80;99.90;;;;;;4996291;28;20413;-83
2022/12/11 13:01:06;;;;;;;8.33;4.13;;;6.80;99.90;;;;;;5001524;28;20032;-83
2022/12/11 13:03:55;;;;;;;9.68;4.10;;;6.80;99.90;;;;;;4986858;28;20538;-83
2022/12/11 13:06:44;;;;;;;10.43;4.32;;;6.80;99.90;;;;;;4998348;28;20099;-83
2022/12/11 13:09:25;;;;;;;9.45;3.97;;;6.80;99.90;;;;;;5003124;28;20440;-83
2022/12/11 13:11:56;;;;;;;8.93;3.70;;;6.80;99.90;;;;;;4969544;28;20045;-83
2022/12/11 13:14:27;;;;;;;9.40;3.70;;;6.70;99.90;;;;;;5003218;28;20539;-82
2022/12/11 13:17:06;;;;;;;8.85;4.00;;;6.60;99.90;;;;;;4984928;28;20014;-84
2022/12/11 13:19:34;;;;;;;10.00;4.43;;;6.50;99.90;;;;;;5001844;28;20495;-83